createdAt,value
2022-10-16T00:01:07.308Z,95214.81
2022-10-16T00:03:35.622Z,95215.84
2022-10-16T00:06:04.143Z,95214.81
2022-10-16T00:08:32.454Z,95209.47
2022-10-16T00:11:04.870Z,95207.38
2022-10-16T00:13:35.388Z,95208.47
2022-10-16T00:16:04.431Z,95210.66
2022-10-16T00:18:32.984Z,95210.16
2022-10-16T00:21:05.538Z,95217.50
2022-10-16T00:23:33.959Z,95222.78
2022-10-16T00:26:03.662Z,95223.28
2022-10-16T00:28:32.434Z,95222.16
2022-10-16T00:31:05.335Z,95225.81
2022-10-16T00:33:33.347Z,95227.34
2022-10-16T00:36:01.817Z,95225.16
2022-10-16T00:38:30.005Z,95224.84
2022-10-16T00:40:58.345Z,95232.00
2022-10-16T00:43:39.123Z,95227.56
2022-10-16T00:46:16.909Z,95233.63
2022-10-16T00:48:51.622Z,95227.31
2022-10-16T00:51:23.855Z,95233.53
2022-10-16T00:53:52.465Z,95236.16
2022-10-16T00:56:20.570Z,95243.50
2022-10-16T00:58:48.672Z,95241.63
2022-10-16T01:01:18.096Z,95236.88
2022-10-16T01:03:46.259Z,95239.75
2022-10-16T01:09:09.196Z,95241.22
2022-10-16T01:11:44.180Z,95229.13
2022-10-16T01:14:19.777Z,95234.38
2022-10-16T01:16:55.159Z,95239.63
2022-10-16T01:19:38.667Z,95239.63
2022-10-16T01:22:09.380Z,95239.63
2022-10-16T01:24:41.559Z,95232.78
2022-10-16T01:27:16.792Z,95233.28
2022-10-16T01:29:54.323Z,95232.75
2022-10-16T01:32:33.479Z,95233.28
2022-10-16T01:35:05.650Z,95234.88
2022-10-16T01:37:39.695Z,95233.50
2022-10-16T01:40:11.930Z,95231.63
2022-10-16T01:42:44.901Z,95237.34
2022-10-16T01:45:19.069Z,95244.38
2022-10-16T01:47:48.920Z,95239.88
2022-10-16T01:50:20.222Z,95233.56
2022-10-16T01:52:51.808Z,95235.66
2022-10-16T01:55:23.124Z,95233.06
2022-10-16T01:57:54.962Z,95239.97
2022-10-16T02:00:24.748Z,95240.41
2022-10-16T02:02:56.255Z,95242.19
2022-10-16T02:05:29.097Z,95243.50
2022-10-16T02:07:58.554Z,95242.38
2022-10-16T02:10:32.398Z,95245.75
2022-10-16T02:13:08.832Z,95243.84
2022-10-16T02:15:36.980Z,95238.59
2022-10-16T02:18:05.753Z,95240.63
2022-10-16T02:20:42.455Z,95230.66
2022-10-16T02:23:17.072Z,95232.25
2022-10-16T02:25:47.664Z,95234.63
2022-10-16T02:28:20.809Z,95235.41
2022-10-16T02:30:54.419Z,95235.22
2022-10-16T02:33:25.714Z,95234.94
2022-10-16T02:35:54.889Z,95232.06
2022-10-16T02:38:24.092Z,95240.19
2022-10-16T02:40:52.447Z,95237.00
2022-10-16T02:43:22.306Z,95233.28
2022-10-16T02:45:50.302Z,95240.13
2022-10-16T02:48:18.240Z,95228.81
2022-10-16T02:50:46.212Z,95234.94
2022-10-16T02:53:14.148Z,95231.56
2022-10-16T02:55:42.155Z,95235.97
2022-10-16T02:58:10.149Z,95224.91
2022-10-16T03:00:39.576Z,95241.47
2022-10-16T03:03:07.703Z,95231.75
2022-10-16T03:05:35.620Z,95232.25
2022-10-16T03:08:03.585Z,95246.91
2022-10-16T03:10:31.586Z,95245.34
2022-10-16T03:13:00.110Z,95254.59
2022-10-16T03:15:29.217Z,95254.78
2022-10-16T03:17:59.993Z,95252.75
2022-10-16T03:20:28.306Z,95256.53
2022-10-16T03:22:56.244Z,95257.16
2022-10-16T03:25:24.240Z,95253.00
2022-10-16T03:27:52.177Z,95259.41
2022-10-16T03:30:20.080Z,95253.97
2022-10-16T03:32:48.003Z,95254.59
2022-10-16T03:35:17.346Z,95258.88
2022-10-16T03:37:45.255Z,95257.59
2022-10-16T03:40:13.654Z,95246.91
2022-10-16T03:42:41.653Z,95258.53
2022-10-16T03:45:10.390Z,95256.44
2022-10-16T03:47:38.359Z,95250.44
2022-10-16T03:50:07.365Z,95262.25
2022-10-16T03:52:36.641Z,95253.88
2022-10-16T03:55:04.855Z,95257.03
2022-10-16T03:57:32.763Z,95253.38
2022-10-16T04:00:00.757Z,95266.56
2022-10-16T04:02:28.803Z,95268.66
2022-10-16T04:04:56.740Z,95278.56
2022-10-16T04:07:25.000Z,95265.31
2022-10-16T04:09:54.509Z,95275.25
2022-10-16T04:12:22.500Z,95273.66
2022-10-16T04:14:50.456Z,95275.44
2022-10-16T04:17:18.442Z,95274.63
2022-10-16T04:19:46.363Z,95280.69
2022-10-16T04:22:14.527Z,95273.59
2022-10-16T04:24:42.518Z,95272.56
2022-10-16T04:27:11.968Z,95267.31
2022-10-16T04:29:39.897Z,95272.56
2022-10-16T04:32:09.780Z,95279.41
2022-10-16T04:34:39.140Z,95274.63
2022-10-16T04:37:07.445Z,95270.66
2022-10-16T04:39:35.560Z,95274.16
2022-10-16T04:42:03.712Z,95272.56
2022-10-16T04:44:33.426Z,95277.81
2022-10-16T04:47:01.432Z,95268.88
2022-10-16T04:49:29.351Z,95277.81
2022-10-16T04:51:57.359Z,95272.56
2022-10-16T04:54:25.624Z,95284.66
2022-10-16T04:56:53.659Z,95286.25
2022-10-16T04:59:22.291Z,95282.75
2022-10-16T05:01:52.153Z,95286.69
2022-10-16T05:04:20.098Z,95283.75
2022-10-16T05:06:48.054Z,95291.88
2022-10-16T05:09:15.977Z,95288.19
2022-10-16T05:11:43.913Z,95290.28
2022-10-16T05:16:44.718Z,95296.47
2022-10-16T05:19:29.435Z,95285.19
2022-10-16T05:21:57.623Z,95294.41
2022-10-16T05:24:25.635Z,95284.38
2022-10-16T05:26:53.677Z,95288.34
2022-10-16T05:29:21.707Z,95291.88
2022-10-16T05:31:52.885Z,95291.63
2022-10-16T05:34:22.656Z,95285.03
2022-10-16T05:36:51.092Z,95281.34
2022-10-16T05:39:19.029Z,95286.91
2022-10-16T05:41:51.621Z,95280.38
2022-10-16T05:44:19.699Z,95281.97
2022-10-16T05:46:49.935Z,95277.81
2022-10-16T05:49:18.590Z,95286.25
2022-10-16T05:51:50.360Z,95293.56
2022-10-16T05:54:18.505Z,95288.81
2022-10-16T05:56:46.886Z,95295.66
2022-10-16T05:59:15.119Z,95301.22
2022-10-16T06:01:46.257Z,95308.94
2022-10-16T06:04:14.403Z,95307.34
2022-10-16T06:06:42.583Z,95309.97
2022-10-16T06:09:12.785Z,95306.78
2022-10-16T06:11:40.730Z,95310.13
2022-10-16T06:14:10.146Z,95326.16
2022-10-16T06:16:39.445Z,95317.97
2022-10-16T06:19:09.197Z,95323.03
2022-10-16T06:21:37.162Z,95325.09
2022-10-16T06:24:05.749Z,95324.56
2022-10-16T06:26:35.064Z,95335.78
2022-10-16T06:29:03.427Z,95326.88
2022-10-16T06:31:34.587Z,95328.72
2022-10-16T06:34:03.103Z,95332.91
2022-10-16T06:36:31.143Z,95332.91
2022-10-16T06:38:59.085Z,95330.28
2022-10-16T06:41:26.976Z,95343.44
2022-10-16T06:43:56.265Z,95341.41
2022-10-16T06:46:26.033Z,95337.75
2022-10-16T06:48:54.778Z,95349.63
2022-10-16T06:51:24.374Z,95344.22
2022-10-16T06:54:09.948Z,95344.22
2022-10-16T06:56:38.624Z,95346.91
2022-10-16T06:59:07.942Z,95347.06
2022-10-16T07:01:35.915Z,95358.66
2022-10-16T07:04:04.385Z,95368.69
2022-10-16T07:06:34.694Z,95369.28
2022-10-16T07:09:06.566Z,95368.81
2022-10-16T07:11:35.420Z,95371.53
2022-10-16T07:14:03.419Z,95366.38
2022-10-16T07:16:34.608Z,95375.44
2022-10-16T07:19:04.818Z,95376.03
2022-10-16T07:21:36.702Z,95368.69
2022-10-16T07:24:06.918Z,95371.38
2022-10-16T07:26:37.175Z,95366.19
2022-10-16T07:29:05.538Z,95367.88
2022-10-16T07:31:35.299Z,95374.78
2022-10-16T07:34:03.281Z,95377.91
2022-10-16T07:36:31.229Z,95387.81
2022-10-16T07:39:00.327Z,95389.16
2022-10-16T07:41:29.032Z,95391.34
2022-10-16T07:43:58.351Z,95398.81
2022-10-16T07:46:26.410Z,95405.66
2022-10-16T07:48:55.872Z,95410.38
2022-10-16T07:51:25.945Z,95403.50
2022-10-16T07:53:54.578Z,95423.41
2022-10-16T07:56:23.311Z,95422.34
2022-10-16T07:58:52.532Z,95428.81
2022-10-16T08:01:21.480Z,95427.19
2022-10-16T08:03:51.326Z,95424.28
2022-10-16T08:06:26.695Z,95432.94
2022-10-16T08:08:56.596Z,95428.41
2022-10-16T08:11:25.541Z,95438.53
2022-10-16T08:13:53.663Z,95459.69
2022-10-16T08:16:21.689Z,95464.19
2022-10-16T08:18:49.638Z,95460.78
2022-10-16T08:21:21.772Z,95457.72
2022-10-16T08:23:54.576Z,95452.94
2022-10-16T08:26:26.941Z,95450.75
2022-10-16T08:28:55.534Z,95448.97
2022-10-16T08:31:24.125Z,95458.31
2022-10-16T08:33:53.269Z,95458.44
2022-10-16T08:36:22.913Z,95458.47
2022-10-16T08:38:52.162Z,95456.38
2022-10-16T08:41:45.404Z,95460.88
2022-10-16T08:44:32.523Z,95460.91
2022-10-16T08:47:10.500Z,95467.06
2022-10-16T08:49:39.999Z,95468.13
2022-10-16T08:52:15.112Z,95473.94
2022-10-16T08:54:47.613Z,95472.38
2022-10-16T08:57:21.473Z,95469.78
2022-10-16T08:59:52.168Z,95469.84
2022-10-16T09:02:29.324Z,95468.28
2022-10-16T09:05:26.264Z,95473.84
2022-10-16T09:08:13.219Z,95472.81
2022-10-16T09:10:52.082Z,95468.94
2022-10-16T09:13:26.595Z,95467.91
2022-10-16T09:16:06.592Z,95473.19
2022-10-16T09:18:43.101Z,95464.75
2022-10-16T09:21:17.967Z,95474.28
2022-10-16T09:23:47.830Z,95465.34
2022-10-16T09:26:17.653Z,95480.13
2022-10-16T09:28:46.320Z,95471.19
2022-10-16T09:31:22.636Z,95483.13
2022-10-16T09:33:54.811Z,95471.28
2022-10-16T09:36:25.364Z,95472.34
2022-10-16T09:39:05.065Z,95466.56
2022-10-16T09:41:36.245Z,95466.56
2022-10-16T09:44:05.648Z,95458.91
2022-10-16T09:46:35.621Z,95464.50
2022-10-16T09:49:05.827Z,95465.56
2022-10-16T09:51:36.357Z,95466.56
2022-10-16T09:54:17.212Z,95464.25
2022-10-16T09:56:46.719Z,95468.75
2022-10-16T09:59:16.503Z,95471.91
2022-10-16T10:01:47.834Z,95472.97
2022-10-16T10:04:16.819Z,95469.28
2022-10-16T10:06:47.209Z,95467.16
2022-10-16T10:09:23.441Z,95471.44
2022-10-16T10:11:54.453Z,95467.22
2022-10-16T10:14:29.051Z,95460.88
2022-10-16T10:17:15.854Z,95467.78
2022-10-16T10:19:49.331Z,95463.81
2022-10-16T10:22:29.978Z,95466.22
2022-10-16T10:25:09.799Z,95477.84
2022-10-16T10:27:45.936Z,95472.59
2022-10-16T10:30:21.850Z,95473.66
2022-10-16T10:32:58.271Z,95471.03
2022-10-16T10:35:36.254Z,95475.78
2022-10-16T10:38:18.246Z,95474.75
2022-10-16T10:40:58.317Z,95472.09
2022-10-16T10:43:42.447Z,95458.34
2022-10-16T10:46:18.323Z,95464.69
2022-10-16T10:49:00.516Z,95462.56
2022-10-16T10:51:34.004Z,95463.06
2022-10-16T10:54:15.685Z,95464.13
2022-10-16T10:56:57.547Z,95466.25
2022-10-16T10:59:40.588Z,95467.81
2022-10-16T11:02:17.778Z,95463.56
2022-10-16T11:05:10.223Z,95455.13
2022-10-16T11:07:45.751Z,95464.09
2022-10-16T11:10:17.732Z,95456.13
2022-10-16T11:12:51.991Z,95455.03
2022-10-16T11:15:23.354Z,95445.50
2022-10-16T11:17:57.825Z,95443.38
2022-10-16T11:20:28.817Z,95442.25
2022-10-16T11:23:02.141Z,95437.47
2022-10-16T11:25:32.356Z,95437.72
2022-10-16T11:28:09.595Z,95428.66
2022-10-16T11:30:46.387Z,95426.25
2022-10-16T11:33:32.450Z,95431.47
2022-10-16T11:36:09.590Z,95420.31
2022-10-16T11:38:45.615Z,95432.50
2022-10-16T11:41:21.156Z,95425.59
2022-10-16T11:43:59.121Z,95422.44
2022-10-16T11:46:29.792Z,95416.53
2022-10-16T11:49:05.583Z,95410.16
2022-10-16T11:51:37.783Z,95421.22
2022-10-16T11:54:17.030Z,95420.66
2022-10-16T11:56:47.973Z,95424.88
2022-10-16T11:59:26.050Z,95419.03
2022-10-16T12:01:59.273Z,95422.41
2022-10-16T12:04:34.981Z,95413.94
2022-10-16T12:07:08.051Z,95421.84
2022-10-16T12:09:39.742Z,95418.28
2022-10-16T12:12:29.104Z,95415.28
2022-10-16T12:15:26.005Z,95413.94
2022-10-16T12:18:03.678Z,95405.91
2022-10-16T12:20:33.625Z,95409.28
2022-10-16T12:23:03.758Z,95410.59
2022-10-16T12:25:34.643Z,95404.78
2022-10-16T12:28:06.106Z,95412.75
2022-10-16T12:30:38.210Z,95398.69
2022-10-16T12:33:08.112Z,95409.47
2022-10-16T12:35:45.444Z,95405.09
2022-10-16T12:38:22.061Z,95406.69
2022-10-16T12:41:00.015Z,95406.09
2022-10-16T12:43:36.913Z,95404.38
2022-10-16T12:46:22.524Z,95401.91
2022-10-16T12:49:08.333Z,95395.66
2022-10-16T12:51:38.364Z,95399.47
2022-10-16T12:54:14.195Z,95410.59
2022-10-16T12:56:51.660Z,95391.91
2022-10-16T12:59:31.570Z,95403.19
2022-10-16T13:02:33.976Z,95399.97
2022-10-16T13:05:15.314Z,95399.81
2022-10-16T13:07:56.047Z,95395.97
2022-10-16T13:10:29.547Z,95404.34
2022-10-16T13:13:26.958Z,95396.31
2022-10-16T13:16:05.988Z,95392.00
2022-10-16T13:18:44.336Z,95386.66
2022-10-16T13:21:23.816Z,95383.34
2022-10-16T13:24:01.257Z,95390.50
2022-10-16T13:26:37.996Z,95397.16
2022-10-16T13:29:06.609Z,95398.31
2022-10-16T13:31:35.465Z,95405.00
2022-10-16T13:34:05.544Z,95397.31
2022-10-16T13:36:38.023Z,95386.78
2022-10-16T13:39:14.859Z,95389.53
2022-10-16T13:41:43.472Z,95381.25
2022-10-16T13:44:18.099Z,95387.69
2022-10-16T13:46:46.062Z,95389.47
2022-10-16T13:49:17.757Z,95390.06
2022-10-16T13:51:57.217Z,95388.97
2022-10-16T13:54:25.662Z,95393.44
2022-10-16T13:57:03.196Z,95399.13
2022-10-16T13:59:39.900Z,95392.88
2022-10-16T14:02:17.028Z,95390.41
2022-10-16T14:04:46.991Z,95395.44
2022-10-16T14:07:21.736Z,95391.94
2022-10-16T14:09:52.109Z,95397.84
2022-10-16T14:12:22.910Z,95394.09
2022-10-16T14:14:55.948Z,95394.13
2022-10-16T14:17:26.953Z,95396.13
2022-10-16T14:20:02.424Z,95399.47
2022-10-16T14:22:35.338Z,95396.91
2022-10-16T14:25:03.715Z,95402.78
2022-10-16T14:27:34.718Z,95396.47
2022-10-16T14:30:22.262Z,95401.63
2022-10-16T14:32:58.849Z,95402.91
2022-10-16T14:35:31.343Z,95405.03
2022-10-16T14:38:01.570Z,95399.84
2022-10-16T14:40:31.946Z,95397.28
2022-10-16T14:43:00.682Z,95409.53
2022-10-16T14:45:32.149Z,95406.50
2022-10-16T14:48:03.351Z,95411.53
2022-10-16T14:50:32.740Z,95406.31
2022-10-16T14:53:01.277Z,95409.06
2022-10-16T14:55:29.294Z,95407.00
2022-10-16T14:57:59.837Z,95405.59
2022-10-16T15:00:29.428Z,95408.50
2022-10-16T15:02:57.435Z,95410.88
2022-10-16T15:05:27.407Z,95414.13
2022-10-16T15:07:57.592Z,95414.88
2022-10-16T15:10:29.150Z,95418.41
2022-10-16T15:12:57.238Z,95414.75
2022-10-16T15:15:36.974Z,95415.88
2022-10-16T15:18:05.159Z,95414.88
2022-10-16T15:20:35.367Z,95411.72
2022-10-16T15:23:08.098Z,95410.53
2022-10-16T15:25:40.711Z,95422.25
2022-10-16T15:28:08.989Z,95424.78
2022-10-16T15:30:38.061Z,95428.56
2022-10-16T15:33:07.572Z,95427.03
2022-10-16T15:35:35.469Z,95422.81
2022-10-16T15:38:04.800Z,95422.00
2022-10-16T15:40:33.096Z,95427.13
2022-10-16T15:43:01.015Z,95430.28
2022-10-16T15:45:28.903Z,95429.66
2022-10-16T15:47:56.873Z,95431.59
2022-10-16T15:50:24.943Z,95443.31
2022-10-16T15:52:53.254Z,95435.09
2022-10-16T15:55:22.574Z,95435.22
2022-10-16T15:57:50.501Z,95430.63
2022-10-16T16:00:21.787Z,95443.81
2022-10-16T16:02:53.649Z,95445.19
2022-10-16T16:05:22.242Z,95447.34
2022-10-16T16:07:50.948Z,95445.47
2022-10-16T16:10:20.548Z,95446.63
2022-10-16T16:12:53.650Z,95441.00
2022-10-16T16:15:22.693Z,95453.44
2022-10-16T16:17:51.416Z,95449.94
2022-10-16T16:20:19.344Z,95455.63
2022-10-16T16:22:47.260Z,95459.66
2022-10-16T16:25:15.254Z,95460.34
2022-10-16T16:27:43.305Z,95459.31
2022-10-16T16:30:18.286Z,95464.38
2022-10-16T16:32:47.840Z,95472.13
2022-10-16T16:35:16.050Z,95474.34
2022-10-16T16:37:44.041Z,95471.38
2022-10-16T16:40:12.259Z,95481.22
2022-10-16T16:42:40.180Z,95474.38
2022-10-16T16:45:09.507Z,95487.97
2022-10-16T16:47:39.448Z,95493.84
2022-10-16T16:50:08.104Z,95492.28
2022-10-16T16:52:36.383Z,95498.47
2022-10-16T16:55:05.071Z,95501.16
2022-10-16T16:57:32.983Z,95503.38
2022-10-16T17:00:00.944Z,95510.06
2022-10-16T17:02:28.942Z,95508.56
2022-10-16T17:04:58.773Z,95506.19
2022-10-16T17:07:28.639Z,95520.56
2022-10-16T17:09:56.862Z,95519.53
2022-10-16T17:12:24.943Z,95520.59
2022-10-16T17:14:53.081Z,95529.13
2022-10-16T17:17:20.994Z,95529.16
2022-10-16T17:19:51.772Z,95533.88
2022-10-16T17:22:21.801Z,95533.34
2022-10-16T17:24:52.253Z,95540.53
2022-10-16T17:27:20.310Z,95539.25
2022-10-16T17:29:52.565Z,95544.03
2022-10-16T17:32:21.937Z,95550.16
2022-10-16T17:34:49.842Z,95551.72
2022-10-16T17:37:18.292Z,95554.41
2022-10-16T17:39:48.024Z,95552.06
2022-10-16T17:42:15.965Z,95562.06
2022-10-16T17:44:44.039Z,95558.91
2022-10-16T17:47:12.052Z,95566.34
2022-10-16T17:49:39.954Z,95572.66
2022-10-16T17:52:07.890Z,95571.63
2022-10-16T17:54:35.836Z,95570.56
2022-10-16T17:57:05.416Z,95577.97
2022-10-16T17:59:33.403Z,95591.22
2022-10-16T18:02:01.400Z,95586.41
2022-10-16T18:04:29.439Z,95588.25
2022-10-16T18:06:57.404Z,95589.06
2022-10-16T18:09:25.322Z,95590.13
2022-10-16T18:11:59.870Z,95586.94
2022-10-16T18:14:31.096Z,95596.47
2022-10-16T18:16:59.953Z,95602.25
2022-10-16T18:19:28.303Z,95598.03
2022-10-16T18:21:56.641Z,95609.13
2022-10-16T18:24:25.823Z,95600.66
2022-10-16T18:26:56.870Z,95605.94
2022-10-16T18:29:25.875Z,95609.66
2022-10-16T18:31:55.328Z,95601.72
2022-10-16T18:34:23.273Z,95603.84
2022-10-16T18:36:54.266Z,95608.59
2022-10-16T18:39:24.758Z,95600.63
2022-10-16T18:41:59.483Z,95599.03
2022-10-16T18:44:27.709Z,95605.13
2022-10-16T18:46:57.281Z,95608.03
2022-10-16T18:49:27.405Z,95613.84
2022-10-16T18:51:56.800Z,95618.31
2022-10-16T18:54:25.749Z,95625.41
2022-10-16T18:56:54.156Z,95619.88
2022-10-16T18:59:22.312Z,95619.06
2022-10-16T19:01:51.173Z,95626.41
2022-10-16T19:04:22.879Z,95625.38
2022-10-16T19:06:54.065Z,95639.13
2022-10-16T19:09:25.581Z,95639.13
2022-10-16T19:11:53.808Z,95651.81
2022-10-16T19:14:21.840Z,95658.13
2022-10-16T19:16:49.948Z,95655.34
2022-10-16T19:19:20.614Z,95655.34
2022-10-16T19:21:55.810Z,95649.00
2022-10-16T19:24:23.720Z,95656.94
2022-10-16T19:26:51.643Z,95656.41
2022-10-16T19:29:20.491Z,95652.47
2022-10-16T19:31:48.457Z,95660.13
2022-10-16T19:34:16.394Z,95656.94
2022-10-16T19:36:45.755Z,95654.31
2022-10-16T19:39:17.265Z,95652.19
2022-10-16T19:41:45.388Z,95654.75
2022-10-16T19:44:15.529Z,95655.28
2022-10-16T19:46:44.132Z,95652.09
2022-10-16T19:49:14.403Z,95667.41
2022-10-16T19:51:42.377Z,95670.06
2022-10-16T19:54:14.277Z,95665.78
2022-10-16T19:56:43.663Z,95666.31
2022-10-16T19:59:16.240Z,95675.28
2022-10-16T20:01:44.285Z,95673.69
2022-10-16T20:04:12.960Z,95683.66
2022-10-16T20:06:41.117Z,95691.53
2022-10-16T20:09:09.252Z,95689.44
2022-10-16T20:11:39.131Z,95694.16
2022-10-16T20:14:07.875Z,95696.25
2022-10-16T20:16:35.910Z,95689.06
2022-10-16T20:19:04.744Z,95700.41
2022-10-16T20:21:34.722Z,95700.41
2022-10-16T20:24:04.378Z,95695.63
2022-10-16T20:26:32.422Z,95702.50
2022-10-16T20:29:02.273Z,95697.22
2022-10-16T20:31:31.929Z,95700.34
2022-10-16T20:34:04.590Z,95703.53
2022-10-16T20:36:33.900Z,95705.09
2022-10-16T20:39:02.695Z,95702.44
2022-10-16T20:41:31.244Z,95696.91
2022-10-16T20:44:01.585Z,95708.28
2022-10-16T20:46:30.277Z,95708.28
2022-10-16T20:49:06.192Z,95720.44
2022-10-16T20:51:39.682Z,95717.75
2022-10-16T20:54:08.497Z,95717.75
2022-10-16T20:56:37.673Z,95719.34
2022-10-16T20:59:07.848Z,95724.63
2022-10-16T21:01:37.104Z,95724.53
2022-10-16T21:04:07.883Z,95719.16
2022-10-16T21:06:39.336Z,95725.44
2022-10-16T21:09:08.077Z,95727.00
2022-10-16T21:11:37.403Z,95732.28
2022-10-16T21:14:08.746Z,95729.16
2022-10-16T21:16:36.793Z,95729.69
2022-10-16T21:19:05.993Z,95731.28
2022-10-16T21:21:36.407Z,95723.38
2022-10-16T21:24:04.589Z,95730.19
2022-10-16T21:26:32.961Z,95720.66
2022-10-16T21:29:03.910Z,95720.66
2022-10-16T21:31:34.366Z,95719.53
2022-10-16T21:34:03.146Z,95719.53
2022-10-16T21:36:32.975Z,95708.97
2022-10-16T21:39:03.299Z,95719.06
2022-10-16T21:41:31.945Z,95715.38
2022-10-16T21:44:01.537Z,95716.84
2022-10-16T21:46:32.208Z,95719.44
2022-10-16T21:49:05.002Z,95719.44
2022-10-16T21:51:34.784Z,95713.66
2022-10-16T21:54:02.797Z,95716.59
2022-10-16T21:56:31.103Z,95709.44
2022-10-16T21:58:59.417Z,95710.47
2022-10-16T22:01:28.960Z,95717.84
2022-10-16T22:03:56.934Z,95715.16
2022-10-16T22:06:28.063Z,95724.63
2022-10-16T22:08:59.468Z,95724.63
2022-10-16T22:11:31.336Z,95723.47
2022-10-16T22:13:59.292Z,95733.88
2022-10-16T22:16:28.133Z,95736.81
2022-10-16T22:18:57.880Z,95736.81
2022-10-16T22:21:28.529Z,95725.47
2022-10-16T22:23:56.760Z,95732.03
2022-10-16T22:26:24.638Z,95735.13
2022-10-16T22:28:52.990Z,95731.91
2022-10-16T22:31:21.713Z,95731.59
2022-10-16T22:33:49.626Z,95733.69
2022-10-16T22:36:17.576Z,95737.34
2022-10-16T22:38:46.925Z,95738.94
2022-10-16T22:41:15.988Z,95727.75
2022-10-16T22:43:45.754Z,95728.22
2022-10-16T22:46:15.365Z,95726.63
2022-10-16T22:48:43.862Z,95723.44
2022-10-16T22:51:16.674Z,95725.59
2022-10-16T22:53:47.697Z,95722.41
2022-10-16T22:56:16.714Z,95728.59
2022-10-16T22:58:45.179Z,95733.41
2022-10-16T23:01:15.375Z,95740.56
2022-10-16T23:03:43.331Z,95738.50
2022-10-16T23:06:11.427Z,95731.13
2022-10-16T23:08:39.463Z,95735.41
2022-10-16T23:11:11.114Z,95738.59
2022-10-16T23:13:39.372Z,95740.72
2022-10-16T23:16:08.702Z,95742.03
2022-10-16T23:18:36.758Z,95742.50
2022-10-16T23:21:06.698Z,95741.22
2022-10-16T23:23:35.895Z,95748.09
2022-10-16T23:26:03.961Z,95753.34
2022-10-16T23:28:33.329Z,95749.03
2022-10-16T23:31:01.293Z,95737.88
2022-10-16T23:33:29.257Z,95748.41
2022-10-16T23:35:57.169Z,95740.56
2022-10-16T23:38:25.083Z,95745.84
2022-10-16T23:40:52.995Z,95745.34
2022-10-16T23:43:20.917Z,95736.41
2022-10-16T23:45:50.322Z,95741.22
2022-10-16T23:48:18.240Z,95742.81
2022-10-16T23:50:46.198Z,95751.28
2022-10-16T23:53:15.067Z,95747.59
2022-10-16T23:55:43.331Z,95747.59
2022-10-16T23:58:11.306Z,95741.28
